sensor_id;sensor_type;location;lat;lon;timestamp;temperature;humidity
22145;DHT22;11238;48.730;11.566;2022-09-12T00:01:27;12.40;99.90
22145;DHT22;11238;48.730;11.566;2022-09-12T00:03:57;12.40;99.90
22145;DHT22;11238;48.730;11.566;2022-09-12T00:06:26;12.30;99.90
22145;DHT22;11238;48.730;11.566;2022-09-12T00:08:57;12.10;99.90
22145;DHT22;11238;48.730;11.566;2022-09-12T00:11:24;12.10;99.90
22145;DHT22;11238;48.730;11.566;2022-09-12T00:13:50;12.10;99.90
22145;DHT22;11238;48.730;11.566;2022-09-12T00:16:19;12.00;99.90
22145;DHT22;11238;48.730;11.566;2022-09-12T00:18:46;12.00;99.90
22145;DHT22;11238;48.730;11.566;2022-09-12T00:21:13;12.00;99.90
22145;DHT22;11238;48.730;11.566;2022-09-12T00:23:39;11.90;99.90
22145;DHT22;11238;48.730;11.566;2022-09-12T00:26:05;12.00;99.90
22145;DHT22;11238;48.730;11.566;2022-09-12T00:28:36;11.90;99.90
22145;DHT22;11238;48.730;11.566;2022-09-12T00:31:06;12.00;99.90
22145;DHT22;11238;48.730;11.566;2022-09-12T00:33:33;12.00;99.90
22145;DHT22;11238;48.730;11.566;2022-09-12T00:35:59;12.00;99.90
22145;DHT22;11238;48.730;11.566;2022-09-12T00:38:28;12.00;99.90
22145;DHT22;11238;48.730;11.566;2022-09-12T00:40:54;11.90;99.90
22145;DHT22;11238;48.730;11.566;2022-09-12T00:46:10;11.90;99.90
22145;DHT22;11238;48.730;11.566;2022-09-12T00:48:43;11.90;99.90
22145;DHT22;11238;48.730;11.566;2022-09-12T00:51:10;11.90;99.90
22145;DHT22;11238;48.730;11.566;2022-09-12T00:53:38;11.90;99.90
22145;DHT22;11238;48.730;11.566;2022-09-12T00:56:05;11.80;99.90
22145;DHT22;11238;48.730;11.566;2022-09-12T00:58:37;11.70;99.90
22145;DHT22;11238;48.730;11.566;2022-09-12T01:01:05;11.70;99.90
22145;DHT22;11238;48.730;11.566;2022-09-12T01:03:30;11.70;99.90
22145;DHT22;11238;48.730;11.566;2022-09-12T01:06:16;11.70;99.90
22145;DHT22;11238;48.730;11.566;2022-09-12T01:08:43;11.70;99.90
22145;DHT22;11238;48.730;11.566;2022-09-12T01:11:12;11.60;99.90
22145;DHT22;11238;48.730;11.566;2022-09-12T01:13:38;11.50;99.90
22145;DHT22;11238;48.730;11.566;2022-09-12T01:16:06;11.60;99.90
22145;DHT22;11238;48.730;11.566;2022-09-12T01:39:04;11.50;99.90
22145;DHT22;11238;48.730;11.566;2022-09-12T01:44:54;11.50;99.90
22145;DHT22;11238;48.730;11.566;2022-09-12T01:47:40;11.50;99.90
22145;DHT22;11238;48.730;11.566;2022-09-12T01:50:13;11.50;99.90
22145;DHT22;11238;48.730;11.566;2022-09-12T01:55:46;11.40;99.90
22145;DHT22;11238;48.730;11.566;2022-09-12T02:00:54;11.40;99.90
22145;DHT22;11238;48.730;11.566;2022-09-12T02:03:30;11.40;99.90
22145;DHT22;11238;48.730;11.566;2022-09-12T02:06:06;11.40;99.90
22145;DHT22;11238;48.730;11.566;2022-09-12T02:08:44;11.30;99.90
22145;DHT22;11238;48.730;11.566;2022-09-12T02:11:12;11.30;99.90
22145;DHT22;11238;48.730;11.566;2022-09-12T02:13:44;11.30;99.90
22145;DHT22;11238;48.730;11.566;2022-09-12T02:16:28;11.30;99.90
22145;DHT22;11238;48.730;11.566;2022-09-12T02:19:02;11.30;99.90
22145;DHT22;11238;48.730;11.566;2022-09-12T02:21:31;11.30;99.90
22145;DHT22;11238;48.730;11.566;2022-09-12T02:24:01;11.30;99.90
22145;DHT22;11238;48.730;11.566;2022-09-12T02:29:20;11.30;99.90
22145;DHT22;11238;48.730;11.566;2022-09-12T02:31:57;11.30;99.90
22145;DHT22;11238;48.730;11.566;2022-09-12T02:39:35;11.30;99.90
22145;DHT22;11238;48.730;11.566;2022-09-12T02:42:01;11.20;99.90
22145;DHT22;11238;48.730;11.566;2022-09-12T02:44:29;11.20;99.90
22145;DHT22;11238;48.730;11.566;2022-09-12T02:47:09;11.20;99.90
22145;DHT22;11238;48.730;11.566;2022-09-12T02:49:36;11.20;99.90
22145;DHT22;11238;48.730;11.566;2022-09-12T02:52:02;11.20;99.90
22145;DHT22;11238;48.730;11.566;2022-09-12T02:54:29;11.10;99.90
22145;DHT22;11238;48.730;11.566;2022-09-12T02:56:55;11.10;99.90
22145;DHT22;11238;48.730;11.566;2022-09-12T02:59:21;11.10;99.90
22145;DHT22;11238;48.730;11.566;2022-09-12T03:05:02;11.10;99.90
22145;DHT22;11238;48.730;11.566;2022-09-12T03:07:50;11.10;99.90
22145;DHT22;11238;48.730;11.566;2022-09-12T03:13:27;10.80;99.90
22145;DHT22;11238;48.730;11.566;2022-09-12T03:16:26;10.90;99.90
22145;DHT22;11238;48.730;11.566;2022-09-12T03:19:34;10.90;99.90
22145;DHT22;11238;48.730;11.566;2022-09-12T03:22:22;10.90;99.90
22145;DHT22;11238;48.730;11.566;2022-09-12T03:27:42;11.00;99.90
22145;DHT22;11238;48.730;11.566;2022-09-12T03:30:10;10.90;99.90
22145;DHT22;11238;48.730;11.566;2022-09-12T03:35:07;11.00;99.90
22145;DHT22;11238;48.730;11.566;2022-09-12T03:37:32;11.00;99.90
22145;DHT22;11238;48.730;11.566;2022-09-12T03:39:58;11.00;99.90
22145;DHT22;11238;48.730;11.566;2022-09-12T03:42:25;11.00;99.90
22145;DHT22;11238;48.730;11.566;2022-09-12T03:44:51;11.00;99.90
22145;DHT22;11238;48.730;11.566;2022-09-12T03:47:17;11.00;99.90
22145;DHT22;11238;48.730;11.566;2022-09-12T03:49:43;11.00;99.90
22145;DHT22;11238;48.730;11.566;2022-09-12T03:52:08;11.10;99.90
22145;DHT22;11238;48.730;11.566;2022-09-12T03:54:34;11.10;99.90
22145;DHT22;11238;48.730;11.566;2022-09-12T03:57:00;11.10;99.90
22145;DHT22;11238;48.730;11.566;2022-09-12T03:59:26;11.10;99.90
22145;DHT22;11238;48.730;11.566;2022-09-12T04:01:52;11.10;99.90
22145;DHT22;11238;48.730;11.566;2022-09-12T04:04:18;11.10;99.90
22145;DHT22;11238;48.730;11.566;2022-09-12T04:06:44;11.10;99.90
22145;DHT22;11238;48.730;11.566;2022-09-12T04:09:10;11.10;99.90
22145;DHT22;11238;48.730;11.566;2022-09-12T04:11:35;11.10;99.90
22145;DHT22;11238;48.730;11.566;2022-09-12T04:14:01;11.10;99.90
22145;DHT22;11238;48.730;11.566;2022-09-12T04:16:27;11.20;99.90
22145;DHT22;11238;48.730;11.566;2022-09-12T04:18:53;11.20;99.90
22145;DHT22;11238;48.730;11.566;2022-09-12T04:21:19;11.20;99.90
22145;DHT22;11238;48.730;11.566;2022-09-12T04:23:48;11.10;99.90
22145;DHT22;11238;48.730;11.566;2022-09-12T04:26:15;11.10;99.90
22145;DHT22;11238;48.730;11.566;2022-09-12T04:28:42;11.10;99.90
22145;DHT22;11238;48.730;11.566;2022-09-12T04:31:11;11.10;99.90
22145;DHT22;11238;48.730;11.566;2022-09-12T04:33:38;11.00;99.90
22145;DHT22;11238;48.730;11.566;2022-09-12T04:36:13;11.00;99.90
22145;DHT22;11238;48.730;11.566;2022-09-12T04:38:42;11.00;99.90
22145;DHT22;11238;48.730;11.566;2022-09-12T04:41:15;11.00;99.90
22145;DHT22;11238;48.730;11.566;2022-09-12T04:43:41;11.00;99.90
22145;DHT22;11238;48.730;11.566;2022-09-12T04:46:09;11.00;99.90
22145;DHT22;11238;48.730;11.566;2022-09-12T04:48:36;11.10;99.90
22145;DHT22;11238;48.730;11.566;2022-09-12T04:51:19;11.00;99.90
22145;DHT22;11238;48.730;11.566;2022-09-12T04:53:50;11.10;99.90
22145;DHT22;11238;48.730;11.566;2022-09-12T04:56:18;11.10;99.90
22145;DHT22;11238;48.730;11.566;2022-09-12T04:58:45;11.10;99.90
22145;DHT22;11238;48.730;11.566;2022-09-12T05:01:13;11.10;99.90
22145;DHT22;11238;48.730;11.566;2022-09-12T05:03:40;11.10;99.90
22145;DHT22;11238;48.730;11.566;2022-09-12T05:06:10;10.90;99.90
22145;DHT22;11238;48.730;11.566;2022-09-12T05:08:36;10.70;99.90
22145;DHT22;11238;48.730;11.566;2022-09-12T05:11:07;10.60;99.90
22145;DHT22;11238;48.730;11.566;2022-09-12T05:13:36;10.60;99.90
22145;DHT22;11238;48.730;11.566;2022-09-12T05:16:03;10.70;99.90
22145;DHT22;11238;48.730;11.566;2022-09-12T05:18:34;10.70;99.90
22145;DHT22;11238;48.730;11.566;2022-09-12T05:21:02;10.80;99.90
22145;DHT22;11238;48.730;11.566;2022-09-12T05:23:28;10.70;99.90
22145;DHT22;11238;48.730;11.566;2022-09-12T05:25:56;10.80;99.90
22145;DHT22;11238;48.730;11.566;2022-09-12T05:28:24;10.90;99.90
22145;DHT22;11238;48.730;11.566;2022-09-12T05:31:25;10.90;99.90
22145;DHT22;11238;48.730;11.566;2022-09-12T05:33:53;11.00;99.90
22145;DHT22;11238;48.730;11.566;2022-09-12T05:36:25;11.00;99.90
22145;DHT22;11238;48.730;11.566;2022-09-12T05:38:51;11.00;99.90
22145;DHT22;11238;48.730;11.566;2022-09-12T05:41:22;11.10;99.90
22145;DHT22;11238;48.730;11.566;2022-09-12T05:43:53;11.10;99.90
22145;DHT22;11238;48.730;11.566;2022-09-12T05:46:21;11.10;99.90
22145;DHT22;11238;48.730;11.566;2022-09-12T05:48:48;11.20;99.90
22145;DHT22;11238;48.730;11.566;2022-09-12T05:51:26;11.10;99.90
22145;DHT22;11238;48.730;11.566;2022-09-12T05:53:56;11.20;99.90
22145;DHT22;11238;48.730;11.566;2022-09-12T05:56:28;11.30;99.90
22145;DHT22;11238;48.730;11.566;2022-09-12T05:59:03;11.30;99.90
22145;DHT22;11238;48.730;11.566;2022-09-12T06:01:30;11.30;99.90
22145;DHT22;11238;48.730;11.566;2022-09-12T06:03:58;11.30;99.90
22145;DHT22;11238;48.730;11.566;2022-09-12T06:06:30;11.30;99.90
22145;DHT22;11238;48.730;11.566;2022-09-12T06:08:59;11.30;99.90
22145;DHT22;11238;48.730;11.566;2022-09-12T06:11:27;11.40;99.90
22145;DHT22;11238;48.730;11.566;2022-09-12T06:13:54;11.40;99.90
22145;DHT22;11238;48.730;11.566;2022-09-12T06:16:29;11.50;99.90
22145;DHT22;11238;48.730;11.566;2022-09-12T06:18:56;11.50;99.90
22145;DHT22;11238;48.730;11.566;2022-09-12T06:21:23;11.50;99.90
22145;DHT22;11238;48.730;11.566;2022-09-12T06:23:50;11.50;99.90
22145;DHT22;11238;48.730;11.566;2022-09-12T06:26:17;11.60;99.90
22145;DHT22;11238;48.730;11.566;2022-09-12T06:28:46;11.60;99.90
22145;DHT22;11238;48.730;11.566;2022-09-12T06:31:14;11.60;99.90
22145;DHT22;11238;48.730;11.566;2022-09-12T06:33:42;11.60;99.90
22145;DHT22;11238;48.730;11.566;2022-09-12T06:36:17;11.70;99.90
22145;DHT22;11238;48.730;11.566;2022-09-12T06:38:44;11.70;99.90
22145;DHT22;11238;48.730;11.566;2022-09-12T06:41:12;11.80;99.90
22145;DHT22;11238;48.730;11.566;2022-09-12T06:43:38;11.80;99.90
22145;DHT22;11238;48.730;11.566;2022-09-12T06:46:05;11.70;99.90
22145;DHT22;11238;48.730;11.566;2022-09-12T06:48:32;11.60;99.90
22145;DHT22;11238;48.730;11.566;2022-09-12T06:51:00;11.60;99.90
22145;DHT22;11238;48.730;11.566;2022-09-12T06:53:28;11.60;99.90
22145;DHT22;11238;48.730;11.566;2022-09-12T06:56:14;11.50;99.90
22145;DHT22;11238;48.730;11.566;2022-09-12T06:58:42;11.60;99.90
22145;DHT22;11238;48.730;11.566;2022-09-12T07:01:09;11.70;99.90
22145;DHT22;11238;48.730;11.566;2022-09-12T07:03:36;11.80;99.90
22145;DHT22;11238;48.730;11.566;2022-09-12T07:06:08;11.80;99.90
22145;DHT22;11238;48.730;11.566;2022-09-12T07:08:35;11.80;99.90
22145;DHT22;11238;48.730;11.566;2022-09-12T07:11:20;11.80;99.90
22145;DHT22;11238;48.730;11.566;2022-09-12T07:13:48;11.80;99.90
22145;DHT22;11238;48.730;11.566;2022-09-12T07:16:15;11.90;99.90
22145;DHT22;11238;48.730;11.566;2022-09-12T07:18:41;12.00;99.90
22145;DHT22;11238;48.730;11.566;2022-09-12T07:21:13;12.10;99.90
22145;DHT22;11238;48.730;11.566;2022-09-12T07:23:40;12.00;99.90
22145;DHT22;11238;48.730;11.566;2022-09-12T07:26:09;12.10;99.90
22145;DHT22;11238;48.730;11.566;2022-09-12T07:28:34;12.10;99.90
22145;DHT22;11238;48.730;11.566;2022-09-12T07:31:09;12.10;99.90
22145;DHT22;11238;48.730;11.566;2022-09-12T07:33:36;12.20;99.90
22145;DHT22;11238;48.730;11.566;2022-09-12T07:36:04;12.30;99.90
22145;DHT22;11238;48.730;11.566;2022-09-12T07:38:31;12.40;99.90
22145;DHT22;11238;48.730;11.566;2022-09-12T07:40:56;12.50;99.90
22145;DHT22;11238;48.730;11.566;2022-09-12T07:43:23;12.60;99.90
22145;DHT22;11238;48.730;11.566;2022-09-12T07:45:54;12.70;99.90
22145;DHT22;11238;48.730;11.566;2022-09-12T07:48:20;12.80;99.90
22145;DHT22;11238;48.730;11.566;2022-09-12T07:50:46;12.90;99.90
22145;DHT22;11238;48.730;11.566;2022-09-12T07:53:12;12.90;99.90
22145;DHT22;11238;48.730;11.566;2022-09-12T07:55:38;13.00;99.90
22145;DHT22;11238;48.730;11.566;2022-09-12T07:58:04;13.10;99.90
22145;DHT22;11238;48.730;11.566;2022-09-12T08:00:30;13.10;99.90
22145;DHT22;11238;48.730;11.566;2022-09-12T08:03:01;13.20;99.90
22145;DHT22;11238;48.730;11.566;2022-09-12T08:05:33;13.30;99.90
22145;DHT22;11238;48.730;11.566;2022-09-12T08:07:59;13.40;99.90
22145;DHT22;11238;48.730;11.566;2022-09-12T08:10:25;13.40;99.90
22145;DHT22;11238;48.730;11.566;2022-09-12T08:12:51;13.40;99.90
22145;DHT22;11238;48.730;11.566;2022-09-12T08:15:16;13.50;99.90
22145;DHT22;11238;48.730;11.566;2022-09-12T08:17:44;13.60;99.90
22145;DHT22;11238;48.730;11.566;2022-09-12T08:20:10;13.80;99.90
22145;DHT22;11238;48.730;11.566;2022-09-12T08:22:36;13.80;99.90
22145;DHT22;11238;48.730;11.566;2022-09-12T08:25:03;13.90;99.90
22145;DHT22;11238;48.730;11.566;2022-09-12T08:27:29;14.00;99.90
22145;DHT22;11238;48.730;11.566;2022-09-12T08:29:54;14.00;99.90
22145;DHT22;11238;48.730;11.566;2022-09-12T08:32:20;14.10;99.90
22145;DHT22;11238;48.730;11.566;2022-09-12T08:34:46;14.20;99.90
22145;DHT22;11238;48.730;11.566;2022-09-12T08:37:12;14.40;99.90
22145;DHT22;11238;48.730;11.566;2022-09-12T08:39:38;14.50;99.90
22145;DHT22;11238;48.730;11.566;2022-09-12T08:42:05;14.50;99.90
22145;DHT22;11238;48.730;11.566;2022-09-12T08:44:51;14.70;99.90
22145;DHT22;11238;48.730;11.566;2022-09-12T08:55:28;15.30;99.90
22145;DHT22;11238;48.730;11.566;2022-09-12T08:57:56;15.40;99.90
22145;DHT22;11238;48.730;11.566;2022-09-12T09:00:23;15.40;99.90
22145;DHT22;11238;48.730;11.566;2022-09-12T09:05:41;15.60;99.90
22145;DHT22;11238;48.730;11.566;2022-09-12T09:10:53;15.90;99.90
22145;DHT22;11238;48.730;11.566;2022-09-12T09:16:32;16.00;99.90
22145;DHT22;11238;48.730;11.566;2022-09-12T09:19:25;16.10;99.90
22145;DHT22;11238;48.730;11.566;2022-09-12T09:21:57;16.30;99.90
22145;DHT22;11238;48.730;11.566;2022-09-12T09:24:40;16.50;99.90
22145;DHT22;11238;48.730;11.566;2022-09-12T09:27:34;16.60;99.90
22145;DHT22;11238;48.730;11.566;2022-09-12T09:30:02;16.70;99.90
22145;DHT22;11238;48.730;11.566;2022-09-12T09:32:37;16.80;99.90
22145;DHT22;11238;48.730;11.566;2022-09-12T09:41:09;17.30;99.90
22145;DHT22;11238;48.730;11.566;2022-09-12T09:43:39;17.50;99.90
22145;DHT22;11238;48.730;11.566;2022-09-12T09:46:06;17.70;99.90
22145;DHT22;11238;48.730;11.566;2022-09-12T09:48:40;17.70;99.90
22145;DHT22;11238;48.730;11.566;2022-09-12T09:51:07;17.90;99.90
22145;DHT22;11238;48.730;11.566;2022-09-12T09:53:42;17.90;99.90
22145;DHT22;11238;48.730;11.566;2022-09-12T09:58:45;18.20;99.90
22145;DHT22;11238;48.730;11.566;2022-09-12T10:01:14;18.30;99.90
22145;DHT22;11238;48.730;11.566;2022-09-12T10:03:50;18.40;99.90
22145;DHT22;11238;48.730;11.566;2022-09-12T10:06:24;18.60;99.90
22145;DHT22;11238;48.730;11.566;2022-09-12T10:09:22;18.70;99.90
22145;DHT22;11238;48.730;11.566;2022-09-12T10:11:49;18.90;99.90
22145;DHT22;11238;48.730;11.566;2022-09-12T10:14:41;19.10;99.90
22145;DHT22;11238;48.730;11.566;2022-09-12T10:17:23;19.40;99.90
22145;DHT22;11238;48.730;11.566;2022-09-12T10:19:50;19.60;99.90
22145;DHT22;11238;48.730;11.566;2022-09-12T10:22:22;19.60;99.90
22145;DHT22;11238;48.730;11.566;2022-09-12T10:25:10;19.80;99.90
22145;DHT22;11238;48.730;11.566;2022-09-12T10:27:37;19.90;99.90
22145;DHT22;11238;48.730;11.566;2022-09-12T10:30:16;20.00;99.90
22145;DHT22;11238;48.730;11.566;2022-09-12T10:32:45;20.20;99.90
22145;DHT22;11238;48.730;11.566;2022-09-12T10:38:00;20.50;99.90
22145;DHT22;11238;48.730;11.566;2022-09-12T10:40:28;20.70;99.90
22145;DHT22;11238;48.730;11.566;2022-09-12T10:42:59;20.60;99.90
22145;DHT22;11238;48.730;11.566;2022-09-12T10:45:33;20.60;99.90
22145;DHT22;11238;48.730;11.566;2022-09-12T10:50:46;20.70;99.90
22145;DHT22;11238;48.730;11.566;2022-09-12T10:53:19;20.60;99.90
22145;DHT22;11238;48.730;11.566;2022-09-12T11:04:04;20.60;99.90
22145;DHT22;11238;48.730;11.566;2022-09-12T11:12:07;21.40;99.90
22145;DHT22;11238;48.730;11.566;2022-09-12T11:14:45;21.50;99.90
22145;DHT22;11238;48.730;11.566;2022-09-12T11:20:32;21.40;99.90
22145;DHT22;11238;48.730;11.566;2022-09-12T11:34:17;22.00;98.00
22145;DHT22;11238;48.730;11.566;2022-09-12T11:37:08;21.60;95.90
22145;DHT22;11238;48.730;11.566;2022-09-12T11:39:43;21.20;95.50
22145;DHT22;11238;48.730;11.566;2022-09-12T11:42:20;21.50;99.20
22145;DHT22;11238;48.730;11.566;2022-09-12T11:45:01;21.80;97.90
22145;DHT22;11238;48.730;11.566;2022-09-12T11:47:31;21.90;97.90
22145;DHT22;11238;48.730;11.566;2022-09-12T11:50:02;21.90;95.00
22145;DHT22;11238;48.730;11.566;2022-09-12T11:52:35;22.10;94.60
22145;DHT22;11238;48.730;11.566;2022-09-12T11:55:05;22.40;96.10
22145;DHT22;11238;48.730;11.566;2022-09-12T11:57:46;22.60;96.10
22145;DHT22;11238;48.730;11.566;2022-09-12T12:00:17;22.90;97.00
22145;DHT22;11238;48.730;11.566;2022-09-12T12:03:08;23.10;93.90
22145;DHT22;11238;48.730;11.566;2022-09-12T12:05:54;23.20;94.50
22145;DHT22;11238;48.730;11.566;2022-09-12T12:08:23;23.30;93.60
22145;DHT22;11238;48.730;11.566;2022-09-12T12:10:54;23.30;92.70
22145;DHT22;11238;48.730;11.566;2022-09-12T12:13:28;23.40;93.70
22145;DHT22;11238;48.730;11.566;2022-09-12T12:16:13;23.60;93.30
22145;DHT22;11238;48.730;11.566;2022-09-12T12:18:41;23.90;92.50
22145;DHT22;11238;48.730;11.566;2022-09-12T12:24:15;24.30;89.30
22145;DHT22;11238;48.730;11.566;2022-09-12T12:27:01;24.50;90.40
22145;DHT22;11238;48.730;11.566;2022-09-12T12:36:57;24.20;85.40
22145;DHT22;11238;48.730;11.566;2022-09-12T12:48:07;24.30;89.10
22145;DHT22;11238;48.730;11.566;2022-09-12T12:50:34;24.20;87.80
22145;DHT22;11238;48.730;11.566;2022-09-12T12:53:06;24.30;89.80
22145;DHT22;11238;48.730;11.566;2022-09-12T12:58:32;24.60;89.40
22145;DHT22;11238;48.730;11.566;2022-09-12T13:03:42;24.50;86.60
22145;DHT22;11238;48.730;11.566;2022-09-12T13:06:34;24.40;84.10
22145;DHT22;11238;48.730;11.566;2022-09-12T13:09:04;24.40;89.00
22145;DHT22;11238;48.730;11.566;2022-09-12T13:11:37;24.60;86.60
22145;DHT22;11238;48.730;11.566;2022-09-12T13:14:06;24.80;88.30
22145;DHT22;11238;48.730;11.566;2022-09-12T13:16:57;24.90;85.60
22145;DHT22;11238;48.730;11.566;2022-09-12T13:19:29;25.00;84.90
22145;DHT22;11238;48.730;11.566;2022-09-12T13:22:05;25.00;87.20
22145;DHT22;11238;48.730;11.566;2022-09-12T13:24:32;25.10;85.10
22145;DHT22;11238;48.730;11.566;2022-09-12T13:26:59;25.00;83.70
22145;DHT22;11238;48.730;11.566;2022-09-12T13:29:26;25.10;82.80
22145;DHT22;11238;48.730;11.566;2022-09-12T13:31:58;25.20;79.50
22145;DHT22;11238;48.730;11.566;2022-09-12T13:34:33;24.80;78.60
22145;DHT22;11238;48.730;11.566;2022-09-12T13:37:21;24.70;81.70
22145;DHT22;11238;48.730;11.566;2022-09-12T13:42:43;24.90;86.20
22145;DHT22;11238;48.730;11.566;2022-09-12T13:45:23;24.80;83.30
22145;DHT22;11238;48.730;11.566;2022-09-12T13:47:55;24.80;81.20
22145;DHT22;11238;48.730;11.566;2022-09-12T13:50:28;24.80;81.70
22145;DHT22;11238;48.730;11.566;2022-09-12T13:53:06;24.60;82.50
22145;DHT22;11238;48.730;11.566;2022-09-12T13:55:37;24.90;83.10
22145;DHT22;11238;48.730;11.566;2022-09-12T14:03:42;24.70;82.50
22145;DHT22;11238;48.730;11.566;2022-09-12T14:06:27;24.50;82.70
22145;DHT22;11238;48.730;11.566;2022-09-12T14:08:54;24.50;83.40
22145;DHT22;11238;48.730;11.566;2022-09-12T14:11:26;24.50;85.10
22145;DHT22;11238;48.730;11.566;2022-09-12T14:13:53;24.50;84.30
22145;DHT22;11238;48.730;11.566;2022-09-12T14:16:20;24.40;83.90
22145;DHT22;11238;48.730;11.566;2022-09-12T14:18:49;24.50;83.70
22145;DHT22;11238;48.730;11.566;2022-09-12T14:21:32;24.40;84.50
22145;DHT22;11238;48.730;11.566;2022-09-12T14:24:09;24.40;84.70
22145;DHT22;11238;48.730;11.566;2022-09-12T14:26:40;24.30;84.00
22145;DHT22;11238;48.730;11.566;2022-09-12T14:29:19;24.40;86.10
22145;DHT22;11238;48.730;11.566;2022-09-12T14:31:46;24.40;84.00
22145;DHT22;11238;48.730;11.566;2022-09-12T14:34:24;24.40;80.60
22145;DHT22;11238;48.730;11.566;2022-09-12T14:37:14;24.20;83.30
22145;DHT22;11238;48.730;11.566;2022-09-12T14:39:43;24.30;86.30
22145;DHT22;11238;48.730;11.566;2022-09-12T14:46:17;24.40;84.10
22145;DHT22;11238;48.730;11.566;2022-09-12T14:48:51;24.40;80.60
22145;DHT22;11238;48.730;11.566;2022-09-12T14:54:42;24.50;79.80
22145;DHT22;11238;48.730;11.566;2022-09-12T14:57:31;24.50;79.80
22145;DHT22;11238;48.730;11.566;2022-09-12T15:06:41;24.30;82.20
22145;DHT22;11238;48.730;11.566;2022-09-12T15:09:12;24.20;79.20
22145;DHT22;11238;48.730;11.566;2022-09-12T15:11:56;24.10;81.00
22145;DHT22;11238;48.730;11.566;2022-09-12T15:14:35;24.20;82.80
22145;DHT22;11238;48.730;11.566;2022-09-12T15:17:01;24.10;81.20
22145;DHT22;11238;48.730;11.566;2022-09-12T15:19:28;24.20;82.20
22145;DHT22;11238;48.730;11.566;2022-09-12T15:22:15;24.10;80.90
22145;DHT22;11238;48.730;11.566;2022-09-12T15:24:57;24.10;78.50
22145;DHT22;11238;48.730;11.566;2022-09-12T15:27:54;23.80;81.10
22145;DHT22;11238;48.730;11.566;2022-09-12T15:30:43;23.40;79.10
22145;DHT22;11238;48.730;11.566;2022-09-12T15:33:10;23.50;79.60
22145;DHT22;11238;48.730;11.566;2022-09-12T15:35:36;23.50;79.80
22145;DHT22;11238;48.730;11.566;2022-09-12T15:38:02;23.30;80.00
22145;DHT22;11238;48.730;11.566;2022-09-12T15:40:31;23.20;79.60
22145;DHT22;11238;48.730;11.566;2022-09-12T15:42:57;23.30;82.40
22145;DHT22;11238;48.730;11.566;2022-09-12T15:45:31;23.20;82.60
22145;DHT22;11238;48.730;11.566;2022-09-12T15:47:57;23.30;82.60
22145;DHT22;11238;48.730;11.566;2022-09-12T15:50:24;23.30;83.20
22145;DHT22;11238;48.730;11.566;2022-09-12T15:52:50;23.30;84.50
22145;DHT22;11238;48.730;11.566;2022-09-12T15:55:39;23.30;83.60
22145;DHT22;11238;48.730;11.566;2022-09-12T15:58:25;23.20;83.70
22145;DHT22;11238;48.730;11.566;2022-09-12T16:00:51;23.20;83.40
22145;DHT22;11238;48.730;11.566;2022-09-12T16:03:25;22.80;83.00
22145;DHT22;11238;48.730;11.566;2022-09-12T16:05:56;22.80;86.30
22145;DHT22;11238;48.730;11.566;2022-09-12T16:08:23;22.80;84.90
22145;DHT22;11238;48.730;11.566;2022-09-12T16:10:54;22.60;82.60
22145;DHT22;11238;48.730;11.566;2022-09-12T16:13:21;22.40;86.20
22145;DHT22;11238;48.730;11.566;2022-09-12T16:15:47;22.40;86.00
22145;DHT22;11238;48.730;11.566;2022-09-12T16:18:16;22.40;86.40
22145;DHT22;11238;48.730;11.566;2022-09-12T16:20:45;22.30;85.00
22145;DHT22;11238;48.730;11.566;2022-09-12T16:23:11;22.30;86.30
22145;DHT22;11238;48.730;11.566;2022-09-12T16:25:39;22.30;86.60
22145;DHT22;11238;48.730;11.566;2022-09-12T16:28:05;22.20;84.90
22145;DHT22;11238;48.730;11.566;2022-09-12T16:30:32;22.10;86.50
22145;DHT22;11238;48.730;11.566;2022-09-12T16:33:01;22.10;87.40
22145;DHT22;11238;48.730;11.566;2022-09-12T16:35:27;22.10;87.40
22145;DHT22;11238;48.730;11.566;2022-09-12T16:37:53;22.10;87.40
22145;DHT22;11238;48.730;11.566;2022-09-12T16:40:19;22.00;88.10
22145;DHT22;11238;48.730;11.566;2022-09-12T16:42:44;21.90;88.80
22145;DHT22;11238;48.730;11.566;2022-09-12T16:45:11;21.90;89.20
22145;DHT22;11238;48.730;11.566;2022-09-12T16:47:41;21.80;90.30
22145;DHT22;11238;48.730;11.566;2022-09-12T16:50:07;21.70;89.80
22145;DHT22;11238;48.730;11.566;2022-09-12T16:52:33;21.60;89.80
22145;DHT22;11238;48.730;11.566;2022-09-12T16:54:59;21.60;90.40
22145;DHT22;11238;48.730;11.566;2022-09-12T16:57:25;21.50;91.30
22145;DHT22;11238;48.730;11.566;2022-09-12T16:59:51;21.50;91.00
22145;DHT22;11238;48.730;11.566;2022-09-12T17:02:17;21.40;91.10
22145;DHT22;11238;48.730;11.566;2022-09-12T17:04:43;21.40;91.30
22145;DHT22;11238;48.730;11.566;2022-09-12T17:07:08;21.30;91.60
22145;DHT22;11238;48.730;11.566;2022-09-12T17:09:35;21.20;91.70
22145;DHT22;11238;48.730;11.566;2022-09-12T17:12:01;21.20;92.00
22145;DHT22;11238;48.730;11.566;2022-09-12T17:14:27;21.20;92.30
22145;DHT22;11238;48.730;11.566;2022-09-12T17:16:52;21.10;92.30
22145;DHT22;11238;48.730;11.566;2022-09-12T17:19:21;21.10;92.60
22145;DHT22;11238;48.730;11.566;2022-09-12T17:21:47;21.00;92.90
22145;DHT22;11238;48.730;11.566;2022-09-12T17:24:15;20.90;93.00
22145;DHT22;11238;48.730;11.566;2022-09-12T17:26:41;20.80;93.20
22145;DHT22;11238;48.730;11.566;2022-09-12T17:29:09;20.80;93.40
22145;DHT22;11238;48.730;11.566;2022-09-12T17:31:35;20.70;93.70
22145;DHT22;11238;48.730;11.566;2022-09-12T17:34:01;20.60;93.90
22145;DHT22;11238;48.730;11.566;2022-09-12T17:36:28;20.40;94.00
22145;DHT22;11238;48.730;11.566;2022-09-12T17:38:54;20.20;94.40
22145;DHT22;11238;48.730;11.566;2022-09-12T17:41:22;20.20;94.60
22145;DHT22;11238;48.730;11.566;2022-09-12T17:43:50;20.10;94.80
22145;DHT22;11238;48.730;11.566;2022-09-12T17:46:20;20.10;94.90
22145;DHT22;11238;48.730;11.566;2022-09-12T17:48:51;20.00;94.90
22145;DHT22;11238;48.730;11.566;2022-09-12T17:51:17;19.80;95.20
22145;DHT22;11238;48.730;11.566;2022-09-12T17:53:43;19.80;95.50
22145;DHT22;11238;48.730;11.566;2022-09-12T17:56:09;19.70;95.70
22145;DHT22;11238;48.730;11.566;2022-09-12T17:58:36;19.70;95.90
22145;DHT22;11238;48.730;11.566;2022-09-12T18:03:52;19.60;96.20
22145;DHT22;11238;48.730;11.566;2022-09-12T18:06:20;19.40;96.50
22145;DHT22;11238;48.730;11.566;2022-09-12T18:08:46;19.40;96.60
22145;DHT22;11238;48.730;11.566;2022-09-12T18:11:12;19.30;96.90
22145;DHT22;11238;48.730;11.566;2022-09-12T18:13:38;19.20;97.20
22145;DHT22;11238;48.730;11.566;2022-09-12T18:16:05;19.20;97.30
22145;DHT22;11238;48.730;11.566;2022-09-12T18:18:33;19.10;97.50